METAR Data
IDs: Format: Raw Decoded Include TAF

Data at: 1620 UTC 19 Sep 2018

KPPO 191555Z AUTO 16003KT 10SM CLR 25/18 A3004 RMK AO2 T02510181
KPPO 191535Z AUTO 00000KT 10SM CLR 25/18 A3005 RMK AO2 T02450182
KPPO 191515Z AUTO 11004KT 10SM CLR 24/19 A3004 RMK AO2 T02380185
KPPO 191455Z AUTO 00000KT 10SM CLR 23/18 A3004 RMK AO2 T02300182
KPPO 191435Z AUTO 00000KT 10SM CLR 22/18 A3005 RMK AO2 T02230181
KPPO 191415Z AUTO 06004KT 10SM CLR 21/18 A3005 RMK AO2 T02130180
KPPO 191355Z AUTO 05004KT 10SM CLR 20/18 A3005 RMK AO2 T02010176
KPPO 191335Z AUTO 10004KT 10SM CLR 19/17 A3004 RMK AO2 T01940171
KPPO 191315Z AUTO 10003KT 10SM CLR 18/17 A3004 RMK AO2 T01840167
KPPO 191255Z AUTO 09003KT 10SM CLR 18/16 A3004 RMK AO2 T01750164
KPPO 191235Z AUTO 00000KT 10SM CLR 17/16 A3004 RMK AO2 T01670160
KPPO 191215Z AUTO 00000KT 10SM CLR 16/15 A3004 RMK AO2 T01580154
KPPO 191155Z AUTO 00000KT 10SM CLR 15/14 A3004 RMK AO2 T01450141 10189 20145
KPPO 191135Z AUTO 00000KT 10SM CLR 15/15 A3004 RMK AO2 T01540149
KPPO 191115Z AUTO 00000KT 10SM CLR 16/15 A3003 RMK AO2 T01580152
KPPO 191055Z AUTO 02003KT 10SM CLR 16/16 A3002 RMK AO2 T01630155
KPPO 191035Z AUTO 02005KT 10SM CLR 17/16 A3002 RMK AO2 T01650155
KPPO 191015Z AUTO 02004KT 10SM CLR 17/16 A3002 RMK AO2 T01670156
KPPO 190955Z AUTO 02004KT 10SM CLR 17/16 A3002 RMK AO2 T01700158
KPPO 190935Z AUTO 01004KT 10SM CLR 17/16 A3001 RMK AO2 T01710160
KPPO 190915Z AUTO 01006KT 10SM CLR 18/17 A3001 RMK AO2 T01750165
KPPO 190855Z AUTO 36005KT 10SM CLR 18/17 A3001 RMK AO2 T01760170
KPPO 190835Z AUTO 36006KT 10SM CLR 18/17 A3001 RMK AO2 T01760170
KPPO 190815Z AUTO 36005KT 10SM CLR 18/17 A3001 RMK AO2 T01770170
KPPO 190755Z AUTO 35005KT 10SM CLR 18/17 A3001 RMK AO2 T01800171
KPPO 190735Z AUTO 01005KT 10SM SCT110 18/17 A3001 RMK AO2 T01820173
KPPO 190715Z AUTO 01006KT 10SM SCT110 18/18 A3000 RMK AO2 T01830175
KPPO 190655Z AUTO 02006KT 10SM SCT007 19/18 A3000 RMK AO2 T01850175
KPPO 190635Z AUTO 01008KT 10SM SCT007 SCT120 19/18 A3000 RMK AO2 T01850175
KPPO 190615Z AUTO 36007KT 10SM BKN120 19/18 A2999 RMK AO2 T01880175
KPPO 190555Z AUTO 00000KT 10SM OVC110 19/18 A2999 RMK AO2 T01900175 10197 20188 402690164
KPPO 190535Z AUTO 03003KT 10SM OVC110 19/18 A2999 RMK AO2 T01900175
KPPO 190515Z AUTO 36006KT 10SM OVC100 19/18 A3001 RMK AO2 T01910175
KPPO 190455Z AUTO 36006KT 10SM OVC110 19/18 A3000 RMK AO2 T01920175
KPPO 190435Z AUTO 36006KT 10SM SCT090 OVC110 19/17 A3000 RMK AO2 T01930169
KPPO 190415Z AUTO 36007KT 10SM BKN090 OVC100 20/17 A3000 RMK AO2 T01950167
KPPO 190355Z AUTO 01004KT 10SM SCT085 OVC110 19/17 A2999 RMK AO2 T01920170
KPPO 190335Z AUTO 01004KT 10SM OVC100 19/17 A2999 RMK AO2 T01920172
KPPO 190315Z AUTO 03003KT 10SM OVC090 19/18 A2999 RMK AO2 T01900176
KPPO 190255Z AUTO 00000KT 10SM BKN100 19/18 A2998 RMK AO2 T01900175
KPPO 190235Z AUTO 02005KT 10SM BKN100 19/18 A2998 RMK AO2 T01900177
KPPO 190215Z AUTO 02004KT 10SM SCT100 19/18 A2998 RMK AO2 T01880175
KPPO 190155Z AUTO 02006KT 10SM CLR 19/18 A2998 RMK AO2 T01910175
KPPO 190135Z AUTO 02007KT 10SM SCT100 19/18 A2997 RMK AO2 T01910175
KPPO 190115Z AUTO 02005KT 10SM BKN100 20/18 A2996 RMK AO2 T01950175
KPPO 190055Z AUTO 36005KT 10SM CLR 20/17 A2996 RMK AO2 T01970173
KPPO 190035Z AUTO 35006KT 4SM BR CLR 19/17 A2996 RMK AO2 T01900169
KPPO 190015Z AUTO 35008KT 5SM BR SCT120 19/17 A2996 RMK AO2 T01910171
KPPO 182355Z AUTO 00000KT 10SM CLR 20/17 A2994 RMK AO2 T01950172 10260 20195
KPPO 182335Z AUTO 00000KT 10SM CLR 21/18 A2994 RMK AO2 T02080175
KPPO 182315Z AUTO 00000KT 10SM CLR 21/17 A2994 RMK AO2 T02110172
KPPO 182255Z AUTO 04003KT 10SM CLR 21/17 A2995 RMK AO2 T02130171
KPPO 182235Z AUTO 01004KT 10SM CLR 22/17 A2995 RMK AO2 T02150172
KPPO 182215Z AUTO 01006KT 10SM CLR 22/17 A2995 RMK AO2 T02160173
KPPO 182155Z AUTO 01010KT 10SM CLR 22/17 A2996 RMK AO2 T02200173
KPPO 182135Z AUTO 36011G15KT 10SM CLR 23/18 A2997 RMK AO2 T02330178
KPPO 182115Z AUTO 34009G15KT 10SM SCT075 23/18 A2997 RMK AO2 T02310182
KPPO 182055Z AUTO 35012KT 10SM SCT013 BKN075 23/18 A2998 RMK AO2 T02270183
KPPO 182035Z AUTO 34011G14KT 10SM SCT013 22/19 A2999 RMK AO2 T02210186
KPPO 182015Z AUTO 35016G19KT 10SM SCT070 23/19 A2999 RMK AO2 T02320185
KPPO 181955Z AUTO 34013G17KT 10SM SCT060 SCT090 24/18 A2998 RMK AO2 T02420176
KPPO 181935Z AUTO 34013G18KT 10SM BKN060 BKN080 25/18 A2998 RMK AO2 T02500181
KPPO 181915Z AUTO 33007KT 10SM SCT060 25/19 A2997 RMK AO2 T02530185
KPPO 181855Z AUTO 36007KT 10SM CLR 25/19 A2997 RMK AO2 T02510187
KPPO 181835Z AUTO 35009KT 10SM CLR 25/19 A2998 RMK AO2 T02510191
KPPO 181815Z AUTO 36010KT 10SM CLR 25/20 A2999 RMK AO2 T02540198
KPPO 181755Z AUTO 36011KT 10SM CLR 26/20 A2998 RMK AO2 T02620198 10269 20193
KPPO 181735Z AUTO 33007KT 10SM CLR 27/20 A2998 RMK AO2 T02660197
KPPO 181715Z AUTO 31006KT 10SM CLR 26/20 A2998 RMK AO2 T02550197
KPPO 181655Z AUTO 30004KT 10SM SCT013 25/20 A2998 RMK AO2 T02500196
KPPO 181635Z AUTO 31005KT 10SM SCT013 24/20 A2998 RMK AO2 T02350197
KPPO 181615Z AUTO 31008KT 10SM SCT011 23/20 A2998 RMK AO2 T02330198
KPPO 181555Z AUTO 33005KT 300V020 10SM SCT009 24/20 A2998 RMK AO2 T02360200
KPPO 181535Z AUTO 32005KT 10SM BKN009 23/20 A2997 RMK AO2 T02290200
KPPO 181515Z AUTO 32008KT 10SM BKN009 23/20 A2998 RMK AO2 T02270203
KPPO 181455Z AUTO 32005KT 10SM SCT009 SCT012 22/20 A2998 RMK AO2 T02210200
KPPO 181435Z AUTO 35004G08KT 10SM SCT009 23/20 A2998 RMK AO2 T02280202
KPPO 181415Z AUTO 00000KT 10SM CLR 24/20 A2997 RMK AO2 T02430204
KPPO 181355Z AUTO 00000KT 10SM CLR 24/21 A2997 RMK AO2 T02400205
KPPO 181335Z AUTO 00000KT 10SM CLR 23/20 A2997 RMK AO2 T02300204
KPPO 181315Z AUTO 00000KT 10SM CLR 22/20 A2997 RMK AO2 T02220201
KPPO 181255Z AUTO 00000KT 7SM CLR 21/20 A2997 RMK AO2 T02120196
KPPO 181235Z AUTO 00000KT 7SM CLR 20/19 A2997 RMK AO2 T02030192
KPPO 181215Z AUTO 33003KT 10SM CLR 19/18 A2997 RMK AO2 T01930180
KPPO 181155Z AUTO 31005KT 10SM CLR 20/18 A2997 RMK AO2 T01960180 10196 20164
KPPO 181135Z AUTO 00000KT 10SM SCT110 17/16 A2996 RMK AO2 T01740164
KPPO 181115Z AUTO 36004KT 10SM SCT110 18/17 A2996 RMK AO2 T01760166
KPPO 181055Z AUTO 22003KT 10SM CLR 18/17 A2995 RMK AO2 T01780169
KPPO 181035Z AUTO 22003KT 10SM SCT060 SCT070 18/17 A2995 RMK AO2 T01800171
KPPO 181015Z AUTO 00000KT 10SM SCT060 SCT070 18/17 A2996 RMK AO2 T01770167
KPPO 180955Z AUTO 00000KT 10SM SCT060 SCT070 18/17 A2995 RMK AO2 T01830169
KPPO 180935Z AUTO 35006KT 10SM SCT060 19/17 A2995 RMK AO2 T01890170
KPPO 180915Z AUTO 35006KT 10SM CLR 17/17 A2995 RMK AO2 T01720167
KPPO 180855Z AUTO 00000KT 10SM CLR 17/16 A2994 RMK AO2 T01710164
KPPO 180835Z AUTO 00000KT 10SM CLR 17/17 A2994 RMK AO2 T01710165
KPPO 180815Z AUTO 00000KT 10SM CLR 18/17 A2994 RMK AO2 T01750170
KPPO 180755Z AUTO 00000KT 10SM CLR 17/17 A2994 RMK AO2 T01740170
KPPO 180735Z AUTO 00000KT 10SM CLR 17/17 A2993 RMK AO2 T01720170
KPPO 180715Z AUTO 00000KT 10SM CLR 17/17 A2994 RMK AO2 T01710167
KPPO 180655Z AUTO 00000KT 10SM CLR 17/17 A2994 RMK AO2 T01740170
KPPO 180635Z AUTO 00000KT 10SM CLR 17/17 A2994 RMK AO2 T01720167
KPPO 180615Z AUTO 00000KT 10SM CLR 18/17 A2994 RMK AO2 T01750168
KPPO 180555Z AUTO 00000KT 10SM CLR 18/18 A2995 RMK AO2 T01800175 10243 20174 403140160
KPPO 180535Z AUTO 00000KT 10SM CLR 18/17 A2995 RMK AO2 T01790172
KPPO 180515Z AUTO 00000KT 10SM CLR 18/17 A2995 RMK AO2 T01800173
KPPO 180455Z AUTO 00000KT 10SM CLR 18/17 A2995 RMK AO2 T01790174
KPPO 180435Z AUTO 00000KT 10SM CLR 18/18 A2995 RMK AO2 T01830178